Latest Weather Observations for Mount Ginini

IDN60801

Issued at 8:35 pm EST Wednesday 20 August 2014 (issued every 30 minutes, with the page automatically refreshed every 10 minutes)

About weather observations | Map of weather stations | Latest weather observations for NSW | Other Formats
Station Details ID: 070349 Name: MOUNT GININI AWS Lat: -35.53 Lon: 148.77 Height: 1760.0 m
Data from the previous 72 hours. | See also: Recent months at Mount Ginini
Date/Time
EST
Temp
°C
App
Temp
°C
Dew
Point
Rel
Hum
%
Delta-T
°C
Wind Press
QNH
hPa
Press
MSL
hPa
Rain
since 9 am
mm
Dir
 
Spd
km/h
Gust
km/h
Spd
kts
Gust
kts
20/08:30pm 0.2 -4.0 -0.6 94 0.3 ENE 11 17 6 9 - - 0.0
20/08:00pm 0.5 -3.3 -0.4 94 0.4 E 9 13 5 7 - - 0.0
20/07:30pm 1.3 -1.7 0.6 95 0.3 ENE 6 9 3 5 - - 0.0
20/07:00pm 1.7 -0.9 1.0 95 0.3 E 4 7 2 4 - - 0.0
20/06:30pm 1.3 -1.4 0.4 94 0.4 ENE 4 6 2 3 - - 0.0
20/06:00pm 2.0 -0.6 1.0 93 0.4 NNE 4 7 2 4 - - 0.0
20/05:30pm 2.6 0.0 0.7 87 0.8 N 4 7 2 4 - - 0.0
20/05:00pm 3.5 0.7 -0.5 75 1.7 NNE 4 9 2 5 - - 0.0
20/04:30pm 4.9 1.5 -0.5 68 2.3 N 7 15 4 8 - - 0.0
20/04:00pm 6.6 2.8 -0.6 60 3.1 NW 9 20 5 11 - - 0.0
20/03:30pm 6.9 3.0 -1.7 54 3.6 WNW 9 19 5 10 - - 0.0
20/03:00pm 7.0 3.1 -1.4 55 3.5 WNW 9 17 5 9 - - 0.0
20/02:30pm 6.9 2.8 -2.8 50 4.0 WNW 9 19 5 10 - - 0.0
20/02:00pm 6.6 2.8 -3.6 48 4.1 W 7 15 4 8 - - 0.0
20/01:30pm 6.6 2.8 -5.7 41 4.7 W 6 13 3 7 - - 0.0
20/01:00pm 6.0 1.9 -6.2 41 4.5 W 7 19 4 10 - - 0.0
20/12:30pm 5.9 2.1 -6.0 42 4.4 WSW 6 13 3 7 - - 0.0
20/12:00pm 5.2 1.0 -7.6 39 4.6 SW 7 15 4 8 - - 0.0
20/11:30am 4.7 -0.2 -12.7 27 5.7 SW 9 15 5 8 - - 0.0
20/11:00am 4.2 -0.4 -13.6 26 5.6 SSW 7 15 4 8 - - 0.0
20/10:30am 3.7 -1.2 -12.2 30 5.2 SW 9 15 5 8 - - 0.0
20/10:00am 3.2 -1.8 -13.5 28 5.2 SSW 9 13 5 7 - - 0.0
20/09:30am 2.9 -2.1 -12.9 30 4.9 SSW 9 15 5 8 - - 0.0
20/09:00am 2.4 -3.0 -14.7 27 5.1 S 11 17 6 9 - - 0.0
20/08:30am 1.8 -3.3 -14.7 28 4.8 S 9 15 5 8 - - 0.0
20/08:00am 0.8 -5.0 -14.4 31 4.4 S 13 17 7 9 - - 0.0
20/07:30am -0.3 -5.8 -9.4 50 2.9 SSW 13 17 7 9 - - 0.0
20/07:00am -1.1 -6.5 -7.9 60 2.2 SSW 13 17 7 9 - - 0.0
20/06:30am -1.4 -6.6 -6.7 67 1.7 SSW 13 17 7 9 - - 0.0
20/06:00am -1.1 -6.7 -6.0 69 1.6 SSW 15 20 8 11 - - 0.0
20/05:30am -1.4 -6.7 -7.3 64 1.9 SSW 13 17 7 9 - - 0.0
20/05:00am -0.9 -6.6 -7.9 59 2.3 SSW 15 20 8 11 - - 0.0
20/04:30am -0.9 -7.1 -9.0 54 2.6 SSW 17 20 9 11 - - 0.0
20/04:00am -1.0 -6.6 -10.6 48 2.9 SSW 13 19 7 10 - - 0.0
20/03:30am -1.3 -6.3 -14.4 36 3.5 SW 9 15 5 8 - - 0.0
20/03:00am 0.0 -4.6 -16.3 28 4.4 SW 6 9 3 5 - - 0.0
20/02:30am -0.1 -4.7 -16.0 29 4.3 SSW 6 15 3 8 - - 0.0
20/02:00am -0.8 -6.5 -13.3 38 3.5 S 13 19 7 10 - - 0.0
20/01:30am -1.8 -7.3 -9.4 56 2.3 S 13 19 7 10 - - 0.0
20/01:00am -1.7 -6.7 -8.0 62 2.0 SSE 11 19 6 10 - - 0.0
20/12:30am -1.5 -6.4 -7.6 63 1.9 SSE 11 19 6 10 - - 0.0
20/12:00am -0.6 -5.6 -8.5 55 2.5 SSE 11 22 6 12 - - 0.0
 
Date/Time
EST
Temp
°C
App
Temp
°C
Dew
Point
Rel
Hum
%
Delta-T
°C
Wind Press
QNH
hPa
Press
MSL
hPa
Rain
since 9 am
mm
Dir
 
Spd
km/h
Gust
km/h
Spd
kts
Gust
kts
19/11:30pm -0.4 -5.8 -8.3 55 2.6 SSE 13 20 7 11 - - 0.0
19/11:00pm -2.2 -7.8 -3.0 94 0.2 S 17 20 9 11 - - 0.0
19/10:30pm -2.1 -7.3 -2.6 96 0.1 S 15 22 8 12 - - 0.0
19/10:00pm -2.3 -6.7 -2.8 96 0.1 S 11 17 6 9 - - 0.0
19/09:30pm -1.9 -7.5 -2.5 96 0.1 S 17 22 9 12 - - 0.0
19/09:00pm -1.6 -7.1 -2.3 95 0.2 S 17 24 9 13 - - 0.0
19/08:30pm -1.4 -6.2 -2.2 94 0.2 S 13 19 7 10 - - 0.0
19/08:00pm -0.7 -5.8 -1.7 93 0.4 S 15 24 8 13 - - 0.0
19/07:30pm -0.9 -6.7 -1.6 95 0.2 S 19 28 10 15 - - 0.0
19/07:00pm -0.7 -5.7 -1.5 94 0.3 S 15 26 8 14 - - 0.0
19/06:30pm -0.2 -6.1 -1.0 94 0.3 S 20 33 11 18 - - 0.0
19/06:00pm 0.2 -5.5 -0.6 94 0.3 S 19 30 10 16 - - 0.0
19/05:30pm 0.5 -4.4 -0.5 93 0.4 S 15 22 8 12 - - 0.0
19/05:00pm 0.8 -4.0 -2.8 77 1.4 S 13 20 7 11 - - 0.0
19/04:30pm 1.9 -2.7 -0.7 83 1.1 S 13 20 7 11 - - 0.0
19/04:00pm 3.4 -0.5 1.1 85 1.0 S 11 20 6 11 - - 0.0
19/03:30pm 3.1 -2.3 1.2 87 0.8 S 19 30 10 16 - - 0.0
19/03:00pm 3.5 -2.1 1.5 87 0.9 S 20 33 11 18 - - 0.0
19/02:30pm 2.8 -2.5 1.8 93 0.4 S 19 32 10 17 - - 0.0
19/02:00pm 2.5 -1.3 1.5 93 0.4 SSE 11 20 6 11 - - 0.0
19/01:30pm 2.1 -2.9 1.2 94 0.4 SSE 17 32 9 17 - - 0.0
19/01:00pm 2.1 -2.5 1.5 96 0.3 SSE 15 33 8 18 - - 0.0
19/12:30pm 1.8 -3.8 1.5 98 0.1 SSE 20 37 11 20 - - 0.0
19/12:00pm 1.6 -3.8 1.3 98 0.1 SSE 19 32 10 17 - - 0.0
19/11:30am 1.7 -3.7 1.4 98 0.1 SSE 19 30 10 16 - - 0.0
19/11:00am 1.4 -3.3 1.1 98 0.1 SE 15 32 8 17 - - 0.0
19/10:30am 1.0 -3.7 0.7 98 0.1 SSE 15 32 8 17 - - 0.0
19/10:00am 0.9 -4.8 0.6 98 0.1 SE 20 41 11 22 - - 0.0
19/09:30am 0.5 -3.9 0.1 97 0.2 SE 13 33 7 18 - - 0.0
19/09:00am 0.4 -4.4 0.0 97 0.2 SE 15 32 8 17 - - 1.0
19/08:30am 0.3 -5.3 -0.1 97 0.2 SE 19 43 10 23 - - 1.0
19/08:00am 0.3 -4.2 -0.1 97 0.2 SE 13 32 7 17 - - 1.0
19/07:30am 0.5 -4.3 0.2 98 0.1 SE 15 30 8 16 - - 1.0
19/07:00am 0.4 -4.8 0.1 98 0.1 SE 17 32 9 17 - - 1.0
19/06:30am 0.3 -4.9 0.0 98 0.1 SE 17 41 9 22 - - 1.0
19/06:00am 0.2 -5.0 -0.1 98 0.1 SE 17 35 9 19 - - 1.0
19/05:30am 0.4 -4.8 0.1 98 0.1 SE 17 33 9 18 - - 1.0
19/05:00am 0.4 -4.8 0.1 98 0.1 SE 17 37 9 20 - - 1.0
19/04:30am 0.5 -6.4 0.2 98 0.1 SE 26 52 14 28 - - 1.0
19/04:00am 0.4 -5.2 0.1 98 0.1 SE 19 44 10 24 - - 1.0
19/03:30am 0.3 -5.3 0.0 98 0.1 SE 19 43 10 23 - - 1.0
19/03:00am -0.1 -5.8 -0.4 98 0.1 ESE 19 48 10 26 - - 1.0
19/02:30am 0.1 -5.7 -0.2 98 0.1 SE 20 41 11 22 - - 1.0
19/02:00am -0.1 -5.9 -0.4 98 0.1 SE 20 46 11 25 - - 1.0
19/01:30am 0.1 -6.5 -0.2 98 0.1 SE 24 46 13 25 - - 1.0
19/01:00am 0.1 -6.5 -0.2 98 0.1 SSE 24 44 13 24 - - 1.0
19/12:30am 0.0 -7.7 -0.3 98 0.1 SSE 30 52 16 28 - - 1.0
19/12:23am 0.0 -7.3 -0.3 98 0.1 SSE 28 50 15 27 - - 1.0
19/12:00am 0.3 -5.5 0.0 98 0.1 SE 20 44 11 24 - - 1.0
 
Date/Time
EST
Temp
°C
App
Temp
°C
Dew
Point
Rel
Hum
%
Delta-T
°C
Wind Press
QNH
hPa
Press
MSL
hPa
Rain
since 9 am
mm
Dir
 
Spd
km/h
Gust
km/h
Spd
kts
Gust
kts
18/11:30pm 0.4 -6.5 0.1 98 0.1 SSE 26 48 14 26 - - 1.0
18/11:00pm 0.3 -7.4 0.0 98 0.1 SSE 30 52 16 28 - - 1.0
18/10:58pm 0.2 -7.1 -0.1 98 0.1 SSE 28 50 15 27 - - 1.0
18/10:30pm 0.3 -5.9 0.0 98 0.1 SE 22 43 12 23 - - 1.0
18/10:00pm 0.2 -6.4 -0.1 98 0.1 SE 24 48 13 26 - - 1.0
18/09:30pm 0.3 -5.5 0.0 98 0.1 SE 20 43 11 23 - - 1.0
18/09:11pm 0.1 -7.2 -0.2 98 0.1 SE 28 52 15 28 - - 1.0
18/09:00pm 0.2 -6.4 -0.1 98 0.1 SE 24 50 13 27 - - 1.0
18/08:54pm 0.3 -7.0 0.0 98 0.1 SE 28 50 15 27 - - 1.0
18/08:30pm 0.7 -6.2 0.4 98 0.1 SE 26 46 14 25 - - 1.0
18/08:00pm 0.7 -5.8 0.4 98 0.1 SE 24 43 13 23 - - 1.0
18/07:30pm 0.7 -5.8 0.4 98 0.1 SE 24 56 13 30 - - 1.0
18/07:00pm 0.6 -5.5 0.3 98 0.1 SE 22 44 12 24 - - 1.0
18/06:30pm 0.5 -5.6 0.2 98 0.1 SSE 22 37 12 20 - - 0.8
18/06:00pm 0.4 -5.4 0.1 98 0.1 SSE 20 37 11 20 - - 0.8
18/05:30pm 0.4 -5.2 0.1 98 0.1 SSE 19 39 10 21 - - 0.8
18/05:00pm 0.6 -4.9 0.3 98 0.1 SSE 19 32 10 17 - - 0.8
18/04:30pm 0.9 -4.2 0.6 98 0.1 SSE 17 30 9 16 - - 0.8
18/04:00pm 1.1 -3.6 0.8 98 0.1 SE 15 35 8 19 - - 0.4
18/03:30pm 1.4 -3.3 1.1 98 0.1 SE 15 35 8 19 - - 0.4
18/03:00pm 1.3 -3.0 1.0 98 0.1 SSE 13 28 7 15 - - 0.2
18/02:30pm 1.8 -4.1 1.5 98 0.1 SSE 22 39 12 21 - - 0.0
18/02:00pm 1.7 -3.3 1.4 98 0.1 SE 17 30 9 16 - - 0.0
18/01:30pm 2.1 -1.7 1.8 98 0.1 ESE 11 28 6 15 - - 0.0
18/01:00pm 2.2 -2.0 1.9 98 0.1 SE 13 35 7 19 - - 0.0
18/12:30pm 2.1 -2.8 1.8 98 0.1 SE 17 32 9 17 - - 0.0
18/12:00pm 1.9 -2.3 1.6 98 0.1 SE 13 43 7 23 - - 0.0
18/11:30am 2.2 -2.4 1.8 97 0.2 ESE 15 46 8 25 - - 0.0
18/11:00am 1.9 -2.3 1.5 97 0.2 ESE 13 37 7 20 - - 0.0
18/10:30am 1.7 -3.7 1.3 97 0.2 SE 19 44 10 24 - - 0.0
18/10:00am 1.0 -4.5 0.6 97 0.2 SE 19 37 10 20 - - 0.0
18/09:30am 0.9 -4.2 0.5 97 0.2 SE 17 43 9 23 - - 0.0
18/09:00am 0.7 -4.5 0.3 97 0.2 SE 17 39 9 21 - - 7.8
18/08:30am 0.7 -4.5 0.3 97 0.2 SE 17 41 9 22 - - 7.8
18/08:08am 0.7 -6.6 0.3 97 0.2 SSE 28 56 15 30 - - 7.8
18/08:00am 0.7 -5.0 0.3 97 0.2 SSE 20 41 11 22 - - 7.8
18/07:30am 0.7 -3.7 0.3 97 0.2 ESE 13 46 7 25 - - 7.8
18/07:00am 0.5 -3.9 0.1 97 0.2 ESE 13 33 7 18 - - 7.8
18/06:30am 0.5 -4.7 0.1 97 0.2 ESE 17 54 9 29 - - 7.8
18/06:00am 0.1 -4.8 -0.3 97 0.2 ESE 15 48 8 26 - - 7.8
18/05:30am 0.6 -4.6 0.2 97 0.2 ESE 17 56 9 30 - - 7.8
18/05:00am 0.8 -4.0 0.4 97 0.2 ESE 15 46 8 25 - - 7.8
18/04:30am 0.7 -4.1 0.3 97 0.2 ESE 15 44 8 24 - - 7.8
18/04:00am 0.8 -4.4 0.4 97 0.2 E 17 56 9 30 - - 7.8
18/03:30am 1.0 -4.1 0.6 97 0.2 ESE 17 43 9 23 - - 7.8
18/03:00am 0.9 -3.9 0.5 97 0.2 ESE 15 43 8 23 - - 7.8
18/02:30am 1.0 -3.7 0.6 97 0.2 ESE 15 41 8 22 - - 7.8
18/02:00am 0.9 -4.2 0.5 97 0.2 ESE 17 41 9 22 - - 7.8
18/01:30am 0.6 -5.2 0.2 97 0.2 ESE 20 57 11 31 - - 7.8
18/01:00am 0.5 -6.4 0.1 97 0.2 SE 26 50 14 27 - - 7.8
18/12:30am 0.3 -5.5 -0.1 97 0.2 ESE 20 43 11 23 - - 7.8
18/12:00am 0.3 -5.3 -0.1 97 0.2 SE 19 48 10 26 - - 7.6
 
Date/Time
EST
Temp
°C
App
Temp
°C
Dew
Point
Rel
Hum
%
Delta-T
°C
Wind Press
QNH
hPa
Press
MSL
hPa
Rain
since 9 am
mm
Dir
 
Spd
km/h
Gust
km/h
Spd
kts
Gust
kts
17/11:30pm 0.4 -5.8 0.0 97 0.2 SE 22 52 12 28 - - 7.6
17/11:00pm 0.5 -5.3 0.1 97 0.2 SE 20 54 11 29 - - 7.6
17/10:30pm 0.4 -4.4 0.0 97 0.2 ESE 15 41 8 22 - - 7.6
17/10:00pm 0.2 -5.4 -0.2 97 0.2 SE 19 37 10 20 - - 7.6
17/09:30pm 0.1 -6.5 -0.3 97 0.2 SE 24 54 13 29 - - 7.6
17/09:00pm 0.0 -5.3 -0.4 97 0.2 ESE 17 41 9 22 - - 7.6

Other Formats:

Comma delimited format used in spreadsheet applications
http://www.bom.gov.au/fwo/IDN60801/IDN60801.95925.axf

JavaScript Object Notation format (JSON) in row-major order
http://www.bom.gov.au/fwo/IDN60801/IDN60801.95925.json